Time;durP1;ratioP1;P1;durP2;ratioP2;P2;SDS_P1;SDS_P2;PMS_P1;PMS_P2;Temp;Humidity;BMP_temperature;BMP_pressure;BME280_temperature;BME280_humidity;BME280_pressure;Samples;Min_cycle;Max_cycle;Signal;HPM_P1;HPM_P2
2023/01/15 05:00:46;;;;;;;0.50;0.50;;;6.50;99.90;;;;;;5708296;23;20248;-64
2023/01/15 05:03:13;;;;;;;0.20;0.20;;;6.50;99.90;;;;;;4902100;29;20223;-64
2023/01/15 05:05:39;;;;;;;0.30;0.30;;;6.50;99.90;;;;;;4895791;29;20590;-66
2023/01/15 05:08:06;;;;;;;0.20;0.20;;;6.50;99.90;;;;;;4896108;29;20218;-66
2023/01/15 05:10:33;;;;;;;5.90;0.82;;;6.50;99.90;;;;;;4892863;29;20225;-65
2023/01/15 05:12:59;;;;;;;0.28;0.28;;;6.50;99.90;;;;;;4886434;29;20584;-65
2023/01/15 05:15:26;;;;;;;1.08;0.90;;;6.50;99.90;;;;;;4879163;29;20220;-66
2023/01/15 05:17:54;;;;;;;1.73;0.85;;;6.50;99.90;;;;;;4893129;29;20216;-66
2023/01/15 05:20:21;;;;;;;10.13;0.70;;;6.50;99.90;;;;;;4915905;23;20211;-67
2023/01/15 05:22:48;;;;;;;2.58;2.45;;;6.50;99.90;;;;;;4888669;29;20208;-66
2023/01/15 05:25:14;;;;;;;0.40;0.40;;;6.50;99.90;;;;;;4881014;29;20205;-64
2023/01/15 05:27:42;;;;;;;3.92;0.40;;;6.50;99.90;;;;;;4892619;29;20225;-65
2023/01/15 05:30:09;;;;;;;0.20;0.20;;;6.50;99.90;;;;;;4894655;29;20708;-65
2023/01/15 05:32:36;;;;;;;1.55;0.85;;;6.50;99.90;;;;;;4873454;29;20220;-65
2023/01/15 05:35:05;;;;;;;0.75;0.75;;;6.50;99.90;;;;;;4877025;29;20230;-69
2023/01/15 05:37:32;;;;;;;0.47;0.47;;;6.50;99.90;;;;;;4882871;29;20213;-66
2023/01/15 05:39:58;;;;;;;0.10;0.10;;;6.50;99.90;;;;;;4884419;29;20205;-65
2023/01/15 05:42:25;;;;;;;0.10;0.10;;;6.50;99.90;;;;;;4882993;29;20233;-66
2023/01/15 05:44:52;;;;;;;1.50;0.85;;;6.50;99.90;;;;;;4877146;29;20214;-65
2023/01/15 05:47:19;;;;;;;0.60;0.60;;;6.50;99.90;;;;;;4886212;29;20211;-65
2023/01/15 05:49:47;;;;;;;0.47;0.47;;;6.40;99.90;;;;;;4888123;29;20224;-66
2023/01/15 05:52:15;;;;;;;0.40;0.40;;;6.40;99.90;;;;;;4877675;29;20286;-67
2023/01/15 05:54:42;;;;;;;0.20;0.20;;;6.40;99.90;;;;;;4880313;29;20232;-67
2023/01/15 05:57:12;;;;;;;0.20;0.20;;;6.40;99.90;;;;;;4880231;29;20212;-66
2023/01/15 05:59:39;;;;;;;0.30;0.30;;;6.40;99.90;;;;;;4876241;29;20201;-65
2023/01/15 06:02:06;;;;;;;0.93;0.35;;;6.40;99.90;;;;;;4882560;29;20255;-67
2023/01/15 06:04:33;;;;;;;0.30;0.30;;;6.40;99.90;;;;;;4879529;29;20209;-66
2023/01/15 06:06:59;;;;;;;0.10;0.10;;;6.30;99.90;;;;;;4879453;29;20219;-65
2023/01/15 06:09:28;;;;;;;0.45;0.40;;;6.30;99.90;;;;;;4885521;29;20251;-69
2023/01/15 06:11:55;;;;;;;0.30;0.30;;;6.30;99.90;;;;;;4875712;29;20325;-66
2023/01/15 06:14:22;;;;;;;0.80;0.50;;;6.20;99.90;;;;;;4875107;29;20223;-68
2023/01/15 06:16:49;;;;;;;0.20;0.20;;;6.20;99.90;;;;;;4885646;29;20281;-67
2023/01/15 06:19:15;;;;;;;0.20;0.20;;;6.20;99.90;;;;;;4876128;29;20526;-67
2023/01/15 06:21:43;;;;;;;0.32;0.32;;;6.10;99.90;;;;;;4884138;29;20255;-67
2023/01/15 06:24:10;;;;;;;0.50;0.50;;;6.20;99.90;;;;;;4875620;29;20213;-66
2023/01/15 06:26:39;;;;;;;0.30;0.30;;;6.10;99.90;;;;;;4885277;29;20212;-67
2023/01/15 06:29:06;;;;;;;0.43;0.43;;;6.10;99.90;;;;;;4883446;29;20312;-66
2023/01/15 06:31:32;;;;;;;1.95;0.75;;;6.10;99.90;;;;;;4879923;29;20240;-64
2023/01/15 06:33:59;;;;;;;1.38;0.50;;;6.00;99.90;;;;;;4884717;29;20204;-67
2023/01/15 06:36:27;;;;;;;0.10;0.10;;;6.00;99.90;;;;;;4875791;29;20224;-68
2023/01/15 06:38:54;;;;;;;1.10;0.50;;;6.00;99.90;;;;;;4877124;29;20209;-67
2023/01/15 06:49:43;;;;;;;0.20;0.20;;;6.00;99.90;;;;;;4875635;29;20360;-68
2023/01/15 06:52:09;;;;;;;0.40;0.40;;;6.00;99.90;;;;;;4879363;29;20229;-68
2023/01/15 06:54:36;;;;;;;0.57;0.57;;;5.90;99.90;;;;;;4885687;29;20527;-67
2023/01/15 06:57:03;;;;;;;5.28;2.10;;;5.90;99.90;;;;;;4876356;29;20772;-67
2023/01/15 06:59:31;;;;;;;1.15;1.05;;;5.90;99.90;;;;;;4878097;29;20213;-68
2023/01/15 07:01:58;;;;;;;0.70;0.70;;;5.90;99.90;;;;;;4879352;29;20239;-67
2023/01/15 07:04:25;;;;;;;0.43;0.43;;;5.90;99.90;;;;;;4885542;29;20217;-67
2023/01/15 07:06:52;;;;;;;0.25;0.25;;;5.90;99.90;;;;;;4887096;29;20217;-68
2023/01/15 07:09:18;;;;;;;0.50;0.50;;;5.90;99.90;;;;;;4880316;29;20641;-67
2023/01/15 07:11:51;;;;;;;0.20;0.20;;;5.80;99.90;;;;;;4882089;29;20236;-68
2023/01/15 07:14:19;;;;;;;0.40;0.40;;;5.80;99.90;;;;;;4878916;29;20229;-70
2023/01/15 07:16:47;;;;;;;0.60;0.40;;;5.80;99.90;;;;;;4877259;29;20208;-68
2023/01/15 07:19:14;;;;;;;1.38;0.32;;;5.80;99.90;;;;;;4884368;29;20199;-69
2023/01/15 07:21:40;;;;;;;0.93;0.93;;;5.80;99.90;;;;;;4883267;29;20236;-68
2023/01/15 07:24:09;;;;;;;0.75;0.40;;;5.80;99.90;;;;;;4879028;29;20240;-66
2023/01/15 07:26:36;;;;;;;0.52;0.52;;;5.80;99.90;;;;;;4878952;29;20265;-68
2023/01/15 07:29:03;;;;;;;0.85;0.85;;;5.80;99.90;;;;;;4880646;29;20220;-67
2023/01/15 07:31:30;;;;;;;0.98;0.70;;;5.80;99.90;;;;;;4882302;29;20255;-69
2023/01/15 07:33:58;;;;;;;0.75;0.75;;;5.80;99.90;;;;;;4880090;29;20208;-68
2023/01/15 07:36:26;;;;;;;0.45;0.45;;;5.80;99.90;;;;;;4873286;29;20666;-67
2023/01/15 07:38:53;;;;;;;0.17;0.17;;;5.80;99.90;;;;;;4891832;29;20204;-68
2023/01/15 07:49:47;;;;;;;1.58;1.48;;;5.80;99.90;;;;;;4893618;29;20227;-68
2023/01/15 07:52:14;;;;;;;0.20;0.20;;;5.80;99.90;;;;;;4892836;29;20236;-67
2023/01/15 07:54:41;;;;;;;1.33;0.60;;;5.90;99.90;;;;;;4884470;29;20208;-69
2023/01/15 07:57:08;;;;;;;1.10;1.10;;;5.90;99.90;;;;;;4896790;29;20212;-68
2023/01/15 07:59:35;;;;;;;1.13;0.93;;;5.90;99.90;;;;;;4897565;29;20204;-66
2023/01/15 08:02:02;;;;;;;0.40;0.35;;;6.00;99.90;;;;;;4877979;29;20240;-67
2023/01/15 08:04:28;;;;;;;1.00;1.00;;;6.00;99.90;;;;;;4883470;29;20209;-66
2023/01/15 08:06:59;;;;;;;1.20;1.10;;;5.90;99.90;;;;;;4884381;29;20219;-68
2023/01/15 08:09:26;;;;;;;0.98;0.98;;;6.00;99.90;;;;;;4888450;29;20255;-67
2023/01/15 08:17:22;;;;;;;0.30;0.30;;;6.00;99.90;;;;;;4880658;29;20708;-66
2023/01/15 08:19:49;;;;;;;0.22;0.22;;;6.10;99.90;;;;;;4886988;29;20201;-66
2023/01/15 08:22:17;;;;;;;0.47;0.47;;;6.10;99.90;;;;;;4877086;29;20247;-68
2023/01/15 08:24:43;;;;;;;1.20;1.20;;;6.10;99.90;;;;;;4887285;29;20219;-67
2023/01/15 08:27:10;;;;;;;0.70;0.70;;;6.10;99.90;;;;;;4893217;29;20214;-66
2023/01/15 08:29:37;;;;;;;0.22;0.22;;;6.10;99.90;;;;;;4886973;29;20234;-67
2023/01/15 08:32:04;;;;;;;1.58;0.55;;;6.10;99.90;;;;;;4876046;29;20229;-66
2023/01/15 08:34:30;;;;;;;0.47;0.47;;;6.20;99.90;;;;;;4874897;29;20213;-67
2023/01/15 08:36:58;;;;;;;3.13;0.63;;;6.30;99.90;;;;;;4872083;29;20206;-66
2023/01/15 08:39:27;;;;;;;0.20;0.20;;;6.30;99.90;;;;;;4876531;29;20206;-66
2023/01/15 08:41:54;;;;;;;2.10;2.00;;;6.40;99.90;;;;;;4882557;29;20592;-66
2023/01/15 08:44:22;;;;;;;0.88;0.85;;;6.40;99.90;;;;;;4873541;29;20201;-67
2023/01/15 08:46:49;;;;;;;3.13;1.65;;;6.40;99.90;;;;;;4880310;29;20214;-66
2023/01/15 08:49:17;;;;;;;8.73;2.78;;;6.50;99.90;;;;;;4879815;29;20209;-68
2023/01/15 08:51:44;;;;;;;4.95;4.60;;;6.60;99.90;;;;;;4877794;29;20230;-66
2023/01/15 08:54:12;;;;;;;8.32;3.35;;;6.60;99.90;;;;;;4888897;29;20931;-68
2023/01/15 08:56:40;;;;;;;3.38;3.28;;;6.70;99.90;;;;;;4883722;29;20235;-67
2023/01/15 08:59:07;;;;;;;1.88;1.77;;;6.70;99.90;;;;;;4896306;29;20205;-66
2023/01/15 09:01:34;;;;;;;2.15;1.45;;;6.80;99.90;;;;;;4882875;29;20226;-68
2023/01/15 09:04:01;;;;;;;2.95;2.38;;;6.80;99.90;;;;;;4879502;29;20220;-67
2023/01/15 09:06:28;;;;;;;0.70;0.70;;;6.90;99.90;;;;;;4880075;29;20210;-67
2023/01/15 09:08:55;;;;;;;0.47;0.47;;;6.90;99.90;;;;;;4880035;29;20209;-67
2023/01/15 09:11:22;;;;;;;1.60;1.50;;;7.00;99.90;;;;;;4878368;29;20240;-67
2023/01/15 09:13:50;;;;;;;7.43;0.77;;;7.00;99.90;;;;;;4881459;29;20584;-66
2023/01/15 09:16:17;;;;;;;4.00;2.97;;;7.00;99.90;;;;;;4879174;29;20212;-68
2023/01/15 09:18:44;;;;;;;2.10;0.73;;;7.00;99.90;;;;;;4875441;29;20233;-66
2023/01/15 09:21:11;;;;;;;1.20;1.20;;;7.00;99.90;;;;;;4880865;29;20237;-68
2023/01/15 09:23:37;;;;;;;0.50;0.50;;;7.10;99.90;;;;;;4878544;29;20558;-67
2023/01/15 09:26:06;;;;;;;0.60;0.60;;;7.00;99.90;;;;;;4884738;29;20244;-66
2023/01/15 09:28:34;;;;;;;0.35;0.30;;;7.10;99.90;;;;;;4877700;29;20564;-67
2023/01/15 09:31:02;;;;;;;1.15;1.15;;;7.10;99.90;;;;;;4879459;29;20248;-67
2023/01/15 09:33:29;;;;;;;1.42;1.42;;;7.10;99.90;;;;;;4879961;29;20202;-67
2023/01/15 09:35:56;;;;;;;1.05;0.60;;;7.10;99.90;;;;;;4877458;29;20205;-66
2023/01/15 09:38:22;;;;;;;3.05;0.63;;;7.10;99.90;;;;;;4881531;29;20216;-66
2023/01/15 09:40:54;;;;;;;21.52;1.33;;;7.10;99.90;;;;;;4877700;29;20237;-68
2023/01/15 09:43:33;;;;;;;4.53;0.63;;;7.10;99.90;;;;;;4873618;29;20577;-68
2023/01/15 09:46:05;;;;;;;0.25;0.25;;;7.00;99.90;;;;;;4875161;29;20296;-66
2023/01/15 09:48:46;;;;;;;0.63;0.63;;;6.90;99.90;;;;;;4871922;29;20213;-68
2023/01/15 09:51:26;;;;;;;0.28;0.28;;;6.80;99.90;;;;;;4870501;29;20237;-66
2023/01/15 09:54:11;;;;;;;0.20;0.20;;;6.70;99.90;;;;;;4889544;29;20215;-67
2023/01/15 09:56:38;;;;;;;1.65;0.50;;;6.70;99.90;;;;;;4879386;29;20232;-67
2023/01/15 09:59:11;;;;;;;0.10;0.10;;;6.60;99.90;;;;;;4880507;29;20220;-68
2023/01/15 10:01:40;;;;;;;2.40;0.45;;;6.60;99.90;;;;;;4880235;29;20239;-67
2023/01/15 10:04:16;;;;;;;0.60;0.60;;;6.50;99.90;;;;;;4875472;29;20220;-67
2023/01/15 10:06:50;;;;;;;0.65;0.65;;;6.50;99.90;;;;;;4874391;29;20212;-67
2023/01/15 10:09:21;;;;;;;5.35;0.52;;;6.40;99.90;;;;;;4877755;29;20330;-67
2023/01/15 10:14:45;;;;;;;0.52;0.52;;;6.30;99.90;;;;;;4873030;29;20261;-67
2023/01/15 10:17:22;;;;;;;1.58;1.30;;;6.20;99.90;;;;;;4873840;29;20213;-66
2023/01/15 10:19:49;;;;;;;0.22;0.22;;;6.20;99.90;;;;;;4888964;29;20213;-68
2023/01/15 10:22:27;;;;;;;0.20;0.20;;;6.10;99.90;;;;;;4876214;29;20242;-67
2023/01/15 10:24:56;;;;;;;1.08;0.55;;;6.10;99.90;;;;;;4874898;29;20213;-67
2023/01/15 10:27:36;;;;;;;0.28;0.28;;;6.10;99.90;;;;;;4870753;29;20229;-67
2023/01/15 10:30:12;;;;;;;0.68;0.68;;;6.20;99.90;;;;;;4875836;29;20236;-67
2023/01/15 10:32:47;;;;;;;0.40;0.40;;;6.20;99.90;;;;;;4876877;29;20311;-66
2023/01/15 10:35:27;;;;;;;0.35;0.35;;;6.20;99.90;;;;;;4887149;29;20231;-66
2023/01/15 10:38:02;;;;;;;0.40;0.40;;;6.20;99.90;;;;;;4871776;29;20244;-65
2023/01/15 10:40:44;;;;;;;0.20;0.20;;;6.30;99.90;;;;;;4871716;29;20209;-66
2023/01/15 10:43:18;;;;;;;0.20;0.20;;;6.50;99.90;;;;;;4877895;29;20220;-67
2023/01/15 10:45:47;;;;;;;0.40;0.40;;;6.50;99.90;;;;;;4887024;29;20212;-67
2023/01/15 10:48:24;;;;;;;2.47;1.75;;;6.60;99.90;;;;;;4870851;29;20214;-66
2023/01/15 10:50:51;;;;;;;0.30;0.30;;;6.60;99.90;;;;;;4881016;29;20242;-67
2023/01/15 10:53:27;;;;;;;0.82;0.82;;;6.60;99.90;;;;;;4888097;29;20217;-67
2023/01/15 10:55:59;;;;;;;0.32;0.32;;;6.60;99.90;;;;;;4886415;29;20233;-68
2023/01/15 10:58:33;;;;;;;0.50;0.50;;;6.70;99.90;;;;;;4881227;29;20216;-67
2023/01/15 11:01:05;;;;;;;0.20;0.20;;;6.80;99.90;;;;;;4881912;29;20316;-67
2023/01/15 11:03:37;;;;;;;0.40;0.40;;;6.70;99.90;;;;;;4876703;29;20205;-70
2023/01/15 11:06:07;;;;;;;1.27;0.93;;;6.60;99.90;;;;;;4875713;29;20218;-67
2023/01/15 11:08:35;;;;;;;0.47;0.47;;;6.70;99.90;;;;;;4872992;29;20278;-68
2023/01/15 11:11:15;;;;;;;0.77;0.77;;;6.70;99.90;;;;;;4880196;29;20335;-67
2023/01/15 11:19:39;;;;;;;1.10;1.10;;;6.80;99.90;;;;;;4877645;29;20396;-68
2023/01/15 11:22:12;;;;;;;0.30;0.30;;;6.80;99.90;;;;;;4864813;29;20333;-67
2023/01/15 11:24:47;;;;;;;2.58;0.82;;;6.80;99.90;;;;;;4882833;29;20271;-65
2023/01/15 11:27:17;;;;;;;1.58;1.52;;;6.80;99.90;;;;;;4879704;29;20239;-67
2023/01/15 11:29:45;;;;;;;0.75;0.75;;;6.80;99.90;;;;;;4885130;29;20214;-68
2023/01/15 11:32:28;;;;;;;0.50;0.47;;;6.80;99.90;;;;;;4912113;23;20286;-66
2023/01/15 11:34:58;;;;;;;1.52;0.88;;;6.90;99.90;;;;;;4893201;29;20579;-66
2023/01/15 11:37:25;;;;;;;2.67;0.50;;;6.90;99.90;;;;;;4895507;29;20214;-66
2023/01/15 11:39:56;;;;;;;0.30;0.30;;;6.90;99.90;;;;;;4888705;29;20216;-66
2023/01/15 11:50:56;;;;;;;0.30;0.30;;;7.00;99.90;;;;;;4893736;29;20264;-67
2023/01/15 11:53:26;;;;;;;2.80;0.52;;;7.10;99.90;;;;;;4901571;29;20216;-67
2023/01/15 11:55:59;;;;;;;1.13;1.02;;;7.10;99.90;;;;;;4885902;29;20230;-67
2023/01/15 11:58:28;;;;;;;0.75;0.75;;;7.20;99.90;;;;;;4896723;29;20214;-67
2023/01/15 12:00:56;;;;;;;1.55;1.55;;;7.10;99.90;;;;;;4882312;29;20233;-67
2023/01/15 12:03:27;;;;;;;1.08;0.93;;;7.10;99.90;;;;;;4897999;29;20285;-67
2023/01/15 12:05:58;;;;;;;1.08;0.82;;;7.10;99.90;;;;;;4890457;29;20212;-67
2023/01/15 12:08:43;;;;;;;5.18;0.50;;;7.20;99.90;;;;;;4885609;29;20577;-67
2023/01/15 12:11:28;;;;;;;0.50;0.50;;;7.30;99.90;;;;;;4895464;29;20368;-67
2023/01/15 12:14:07;;;;;;;0.60;0.60;;;7.40;99.90;;;;;;4898224;29;20224;-67
2023/01/15 12:16:42;;;;;;;0.40;0.40;;;7.40;99.90;;;;;;4899550;29;20399;-67
2023/01/15 12:19:17;;;;;;;0.47;0.47;;;7.50;99.90;;;;;;4882875;29;20219;-67
2023/01/15 12:22:06;;;;;;;0.47;0.47;;;7.60;99.90;;;;;;4892552;29;20229;-67
2023/01/15 12:25:04;;;;;;;1.40;1.30;;;7.60;99.90;;;;;;4884197;29;20229;-67
2023/01/15 12:27:52;;;;;;;2.03;1.08;;;7.70;99.90;;;;;;4881755;29;20217;-67
2023/01/15 12:30:28;;;;;;;13.60;1.05;;;7.70;99.90;;;;;;4890512;29;20217;-67
2023/01/15 12:33:01;;;;;;;0.40;0.40;;;7.70;99.90;;;;;;4902649;29;20224;-67
2023/01/15 12:35:30;;;;;;;0.20;0.20;;;7.70;99.90;;;;;;4898556;29;20659;-67
2023/01/15 12:38:01;;;;;;;0.82;0.82;;;7.60;99.90;;;;;;4886194;29;20219;-67
2023/01/15 12:40:33;;;;;;;0.47;0.30;;;7.60;99.90;;;;;;4893560;29;20576;-67
2023/01/15 12:45:49;;;;;;;7.15;1.00;;;7.60;99.90;;;;;;4899987;29;20222;-67
2023/01/15 12:48:22;;;;;;;0.20;0.20;;;7.60;99.90;;;;;;4887113;29;20306;-67
2023/01/15 12:50:51;;;;;;;1.00;0.95;;;7.70;99.90;;;;;;4880540;29;20234;-67
2023/01/15 12:53:23;;;;;;;0.75;0.75;;;7.70;99.90;;;;;;4899993;29;20220;-66
2023/01/15 12:55:58;;;;;;;0.30;0.30;;;7.80;99.90;;;;;;4887841;29;20215;-66
2023/01/15 12:58:36;;;;;;;1.17;0.85;;;7.80;99.90;;;;;;4889644;29;20226;-66
2023/01/15 13:01:12;;;;;;;2.35;1.75;;;7.80;99.90;;;;;;4899706;29;20238;-66
2023/01/15 13:03:51;;;;;;;1.20;1.20;;;7.80;99.90;;;;;;4897384;29;20225;-67
2023/01/15 13:06:19;;;;;;;0.30;0.30;;;7.70;99.90;;;;;;4881773;29;20213;-67
2023/01/15 13:08:55;;;;;;;0.80;0.80;;;7.80;99.90;;;;;;4881878;29;20583;-67
2023/01/15 13:11:22;;;;;;;0.40;0.40;;;7.80;99.90;;;;;;4882003;29;20229;-67
2023/01/15 13:13:57;;;;;;;0.40;0.40;;;7.80;99.90;;;;;;4897773;29;20240;-67
2023/01/15 13:16:41;;;;;;;0.30;0.30;;;7.80;99.90;;;;;;4895209;29;20284;-67
2023/01/15 13:19:25;;;;;;;0.30;0.30;;;7.80;99.90;;;;;;4888375;29;20332;-67
2023/01/15 13:21:56;;;;;;;11.68;0.70;;;7.90;99.90;;;;;;4887775;29;20222;-67
2023/01/15 13:24:45;;;;;;;0.73;0.73;;;7.80;99.90;;;;;;4877640;29;20527;-67
2023/01/15 13:27:26;;;;;;;0.40;0.40;;;7.90;99.90;;;;;;4889703;29;20214;-67
2023/01/15 13:30:15;;;;;;;0.68;0.68;;;7.80;99.90;;;;;;4897588;29;20292;-67
2023/01/15 13:32:47;;;;;;;0.35;0.35;;;7.80;99.90;;;;;;4893602;29;20234;-67
2023/01/15 13:35:21;;;;;;;0.60;0.60;;;7.80;99.90;;;;;;4881538;29;20214;-67
2023/01/15 13:37:51;;;;;;;0.60;0.60;;;7.90;99.90;;;;;;4896492;29;20302;-67
2023/01/15 13:40:27;;;;;;;1.50;1.50;;;7.90;99.90;;;;;;4889466;29;20216;-67
2023/01/15 13:42:54;;;;;;;1.00;0.47;;;7.90;99.90;;;;;;4896912;29;20215;-67
2023/01/15 13:45:27;;;;;;;0.70;0.70;;;7.80;99.90;;;;;;4894352;29;20218;-67
2023/01/15 13:47:57;;;;;;;0.63;0.60;;;7.80;99.90;;;;;;4889431;29;20650;-67
2023/01/15 13:50:29;;;;;;;0.63;0.63;;;7.80;99.90;;;;;;4893841;29;20220;-67
2023/01/15 13:53:14;;;;;;;0.20;0.20;;;7.80;99.90;;;;;;4895688;29;20325;-67
2023/01/15 13:55:50;;;;;;;0.50;0.50;;;7.70;99.90;;;;;;4891923;29;20282;-67
2023/01/15 13:58:20;;;;;;;0.52;0.52;;;7.70;99.90;;;;;;4898007;29;20538;-67
2023/01/15 14:00:47;;;;;;;0.90;0.50;;;7.60;99.90;;;;;;4900053;29;20237;-67
2023/01/15 14:03:26;;;;;;;0.50;0.45;;;7.50;99.90;;;;;;4894992;29;20214;-67
2023/01/15 14:05:55;;;;;;;0.73;0.73;;;7.40;99.90;;;;;;4882875;29;20212;-67
2023/01/15 14:08:26;;;;;;;0.30;0.30;;;7.40;99.90;;;;;;4896076;29;20268;-67
2023/01/15 14:10:55;;;;;;;0.20;0.20;;;7.20;99.90;;;;;;4891377;29;20279;-67
2023/01/15 14:13:45;;;;;;;0.55;0.55;;;7.10;99.90;;;;;;4886296;29;20295;-67
2023/01/15 14:16:23;;;;;;;0.30;0.30;;;7.00;99.90;;;;;;4889197;29;20208;-67
2023/01/15 14:19:15;;;;;;;0.50;0.50;;;6.90;99.90;;;;;;4891900;29;20723;-67
2023/01/15 14:21:51;;;;;;;0.25;0.25;;;6.90;99.90;;;;;;4892875;29;20260;-68
2023/01/15 14:24:46;;;;;;;0.50;0.50;;;6.90;99.90;;;;;;4879571;29;20645;-67
2023/01/15 14:27:23;;;;;;;3.90;0.90;;;6.90;99.90;;;;;;4891576;29;20662;-67
2023/01/15 14:30:12;;;;;;;1.15;1.15;;;6.90;99.90;;;;;;4879702;29;20215;-67
2023/01/15 14:32:51;;;;;;;1.35;1.35;;;7.00;99.90;;;;;;4888332;29;20220;-67
2023/01/15 14:35:21;;;;;;;0.30;0.30;;;7.00;99.90;;;;;;4891812;29;20213;-67
2023/01/15 14:37:52;;;;;;;1.27;1.27;;;7.10;99.90;;;;;;4893642;29;20213;-67
2023/01/15 14:40:22;;;;;;;0.73;0.73;;;7.20;99.90;;;;;;4896594;29;20209;-67
2023/01/15 14:43:03;;;;;;;1.10;1.10;;;7.20;99.90;;;;;;4883031;29;20215;-67
2023/01/15 14:45:34;;;;;;;0.90;0.90;;;7.30;99.90;;;;;;4889799;29;20278;-67
2023/01/15 14:48:02;;;;;;;3.40;0.68;;;7.30;99.90;;;;;;4893563;29;20206;-67
2023/01/15 14:50:40;;;;;;;0.40;0.40;;;7.30;99.90;;;;;;4900223;29;20240;-67
2023/01/15 14:53:33;;;;;;;6.32;2.80;;;7.30;99.90;;;;;;4887083;29;20241;-67
2023/01/15 14:56:07;;;;;;;2.47;0.85;;;7.30;99.90;;;;;;4888970;29;20364;-67
2023/01/15 14:58:47;;;;;;;0.40;0.40;;;7.30;99.90;;;;;;4904112;29;20216;-67
2023/01/15 15:01:36;;;;;;;0.63;0.63;;;7.30;99.90;;;;;;4892904;29;20565;-67
2023/01/15 15:04:13;;;;;;;0.68;0.50;;;7.30;99.90;;;;;;4892378;29;20292;-67
2023/01/15 15:06:47;;;;;;;0.43;0.43;;;7.30;99.90;;;;;;4891097;29;20224;-67
2023/01/15 15:09:18;;;;;;;0.47;0.45;;;7.30;99.90;;;;;;4885704;29;20563;-67
2023/01/15 15:14:38;;;;;;;0.30;0.20;;;7.30;99.90;;;;;;4891034;29;20553;-67
2023/01/15 15:17:11;;;;;;;0.30;0.30;;;7.30;99.90;;;;;;4891883;29;20236;-67
2023/01/15 15:19:44;;;;;;;0.52;0.52;;;7.40;99.90;;;;;;4897858;29;20221;-67
2023/01/15 15:22:16;;;;;;;0.20;0.20;;;7.40;99.90;;;;;;4891343;29;20260;-67
2023/01/15 15:24:47;;;;;;;0.82;0.43;;;7.40;99.90;;;;;;4899977;29;20527;-67
2023/01/15 15:27:16;;;;;;;0.45;0.45;;;7.40;99.90;;;;;;4899073;29;20573;-67
2023/01/15 15:29:45;;;;;;;0.40;0.40;;;7.30;99.90;;;;;;4898017;29;20241;-67
2023/01/15 15:32:15;;;;;;;0.40;0.40;;;7.40;99.90;;;;;;4895722;29;20248;-67
2023/01/15 15:34:45;;;;;;;0.25;0.25;;;7.40;99.90;;;;;;4902791;29;20208;-67
2023/01/15 15:37:17;;;;;;;0.20;0.20;;;7.40;99.90;;;;;;4903445;29;20627;-67
2023/01/15 15:39:50;;;;;;;0.28;0.28;;;7.40;99.90;;;;;;4897109;29;20615;-67
2023/01/15 15:50:56;;;;;;;1.33;0.20;;;7.40;99.90;;;;;;4894950;29;20303;-67
2023/01/15 15:53:22;;;;;;;24.75;0.90;;;7.40;99.90;;;;;;4903722;29;20673;-67
2023/01/15 15:55:49;;;;;;;0.73;0.32;;;7.40;99.90;;;;;;4892875;29;20233;-67
2023/01/15 15:58:23;;;;;;;0.20;0.20;;;7.50;99.90;;;;;;4895505;29;20229;-67
2023/01/15 16:00:52;;;;;;;6.18;0.93;;;7.40;99.90;;;;;;4890388;29;20728;-67
2023/01/15 16:03:21;;;;;;;0.40;0.40;;;7.50;99.90;;;;;;4894429;29;20214;-67
2023/01/15 16:06:01;;;;;;;0.40;0.40;;;7.40;99.90;;;;;;4900879;29;20323;-68
2023/01/15 16:08:29;;;;;;;0.47;0.47;;;7.40;99.90;;;;;;4900642;29;20555;-67
2023/01/15 16:11:00;;;;;;;0.57;0.57;;;7.40;99.90;;;;;;4900367;29;20241;-69
2023/01/15 16:13:31;;;;;;;1.60;0.45;;;7.40;99.90;;;;;;4905232;29;20233;-69
2023/01/15 16:16:01;;;;;;;5.18;0.50;;;7.40;99.90;;;;;;4894729;29;20615;-67
2023/01/15 16:18:31;;;;;;;0.20;0.20;;;7.30;99.90;;;;;;4896087;29;20557;-67
2023/01/15 16:20:58;;;;;;;2.08;0.90;;;7.30;99.90;;;;;;4892829;29;20742;-69
2023/01/15 16:23:27;;;;;;;0.50;0.50;;;7.20;99.90;;;;;;4884263;29;20209;-67
2023/01/15 16:26:05;;;;;;;0.20;0.20;;;7.20;99.90;;;;;;4902128;29;20211;-68
2023/01/15 16:28:38;;;;;;;0.20;0.20;;;7.20;99.90;;;;;;4902068;29;20216;-69
2023/01/15 16:31:07;;;;;;;0.20;0.20;;;7.20;99.90;;;;;;4897990;29;20237;-68
2023/01/15 16:33:35;;;;;;;0.20;0.20;;;7.20;99.90;;;;;;4891459;29;20237;-68
2023/01/15 16:36:03;;;;;;;0.60;0.60;;;7.20;99.90;;;;;;4896097;29;20221;-68
2023/01/15 16:38:32;;;;;;;2.25;1.58;;;7.20;99.90;;;;;;4896618;29;20220;-68
2023/01/15 16:40:59;;;;;;;0.55;0.55;;;7.20;99.90;;;;;;4896902;29;20253;-68
2023/01/15 16:43:26;;;;;;;1.10;0.30;;;7.10;99.90;;;;;;4905396;29;20209;-69
2023/01/15 16:46:00;;;;;;;6.45;0.95;;;7.10;99.90;;;;;;4896432;29;20225;-69
2023/01/15 16:48:35;;;;;;;0.20;0.20;;;7.10;99.90;;;;;;4902719;29;20243;-68
2023/01/15 16:51:28;;;;;;;4.45;0.85;;;7.00;99.90;;;;;;4889278;29;20221;-66
2023/01/15 16:53:54;;;;;;;0.50;0.50;;;7.00;99.90;;;;;;4894527;29;20233;-68
2023/01/15 16:56:47;;;;;;;0.30;0.30;;;7.00;99.90;;;;;;4897938;29;20208;-68
2023/01/15 16:59:16;;;;;;;0.10;0.10;;;7.00;99.90;;;;;;4892038;29;20212;-69
2023/01/15 17:01:45;;;;;;;0.73;0.73;;;7.00;99.90;;;;;;4907237;29;20233;-67
2023/01/15 17:04:30;;;;;;;0.30;0.30;;;7.00;99.90;;;;;;4887210;29;20651;-69
2023/01/15 17:07:00;;;;;;;0.68;0.68;;;7.00;99.90;;;;;;4893816;29;20217;-68
2023/01/15 17:09:27;;;;;;;0.65;0.65;;;6.90;99.90;;;;;;4895425;29;20223;-67
2023/01/15 17:11:54;;;;;;;0.45;0.45;;;6.90;99.90;;;;;;4891470;29;20321;-69
2023/01/15 17:14:23;;;;;;;0.63;0.63;;;6.80;99.90;;;;;;4892373;29;20658;-68
2023/01/15 17:17:17;;;;;;;0.70;0.70;;;6.80;99.90;;;;;;4887808;29;20217;-68
2023/01/15 17:19:45;;;;;;;0.20;0.20;;;6.70;99.90;;;;;;4893132;29;20670;-68
2023/01/15 17:22:15;;;;;;;0.30;0.30;;;6.60;99.90;;;;;;4897472;29;20237;-68
2023/01/15 17:24:49;;;;;;;0.40;0.40;;;6.50;99.90;;;;;;4906118;29;20674;-68
2023/01/15 17:27:15;;;;;;;0.35;0.35;;;6.40;99.90;;;;;;4896488;29;20224;-67
2023/01/15 17:29:43;;;;;;;0.30;0.30;;;6.30;99.90;;;;;;4889358;29;20209;-68
2023/01/15 17:32:13;;;;;;;0.40;0.40;;;6.30;99.90;;;;;;4898793;29;20332;-68
2023/01/15 17:34:40;;;;;;;0.30;0.30;;;6.30;99.90;;;;;;4900803;29;20215;-68
2023/01/15 17:37:08;;;;;;;0.30;0.30;;;6.20;99.90;;;;;;4907059;29;20216;-67
2023/01/15 17:39:35;;;;;;;0.60;0.60;;;6.10;99.90;;;;;;4894060;29;20212;-67
2023/01/15 17:42:02;;;;;;;0.60;0.45;;;6.00;99.90;;;;;;4884761;29;20576;-67
2023/01/15 17:44:28;;;;;;;0.20;0.20;;;6.00;99.90;;;;;;4898080;29;20217;-67
2023/01/15 17:46:55;;;;;;;0.68;0.68;;;5.90;99.90;;;;;;4892305;29;20579;-68
2023/01/15 17:49:22;;;;;;;0.30;0.30;;;5.90;99.90;;;;;;4896283;29;20241;-67
2023/01/15 17:51:51;;;;;;;1.00;0.70;;;5.80;99.90;;;;;;4897367;29;20230;-66
2023/01/15 18:05:24;;;;;;;0.20;0.20;;;5.80;99.90;;;;;;4894815;29;20212;-67
2023/01/15 18:05:25;;;;;;;0.30;0.30;;;5.60;99.90;;;;;;4903514;29;20215;-68
2023/01/15 18:07:55;;;;;;;0.20;0.20;;;5.60;99.90;;;;;;4898054;29;20608;-66
2023/01/15 18:10:24;;;;;;;0.40;0.40;;;5.60;99.90;;;;;;4883627;29;20244;-68
2023/01/15 18:12:51;;;;;;;0.50;0.50;;;5.60;99.90;;;;;;4889074;29;20883;-68
2023/01/15 18:15:18;;;;;;;0.55;0.55;;;5.60;99.90;;;;;;4901143;29;20645;-66
2023/01/15 18:17:45;;;;;;;0.75;0.75;;;5.60;99.90;;;;;;4894850;29;20247;-68
2023/01/15 18:20:13;;;;;;;0.40;0.40;;;5.60;99.90;;;;;;4896284;29;20223;-68
2023/01/15 18:22:40;;;;;;;0.22;0.22;;;5.60;99.90;;;;;;4895752;29;20572;-68
2023/01/15 18:25:10;;;;;;;0.43;0.35;;;5.60;99.90;;;;;;4900166;29;20668;-68
2023/01/15 18:27:42;;;;;;;0.52;0.52;;;5.60;99.90;;;;;;4884420;29;20288;-68
2023/01/15 18:30:10;;;;;;;0.30;0.30;;;5.60;99.90;;;;;;4909252;29;20302;-69
2023/01/15 18:32:37;;;;;;;0.20;0.20;;;5.60;99.90;;;;;;4892256;29;20232;-68
2023/01/15 18:35:04;;;;;;;0.77;0.77;;;5.60;99.90;;;;;;4903379;29;20217;-66
2023/01/15 18:37:32;;;;;;;0.73;0.73;;;5.70;99.90;;;;;;4901890;29;20625;-67
2023/01/15 18:39:59;;;;;;;0.20;0.20;;;5.70;99.90;;;;;;4899741;29;20650;-67
2023/01/15 18:47:56;;;;;;;0.73;0.38;;;5.80;99.90;;;;;;4898016;29;20218;-68
2023/01/15 18:50:23;;;;;;;0.40;0.40;;;5.70;99.90;;;;;;4906917;29;20209;-68
2023/01/15 18:52:52;;;;;;;0.20;0.20;;;5.70;99.90;;;;;;4882749;29;20236;-67
2023/01/15 18:55:21;;;;;;;0.70;0.70;;;5.70;99.90;;;;;;4897048;29;20220;-68
2023/01/15 18:57:48;;;;;;;0.35;0.35;;;5.70;99.90;;;;;;4899367;29;20308;-67
2023/01/15 19:00:16;;;;;;;1.65;1.35;;;5.70;99.90;;;;;;4891733;29;20232;-67
2023/01/15 19:02:44;;;;;;;0.20;0.20;;;5.70;99.90;;;;;;4887964;29;20299;-69
2023/01/15 19:05:13;;;;;;;0.45;0.45;;;5.70;99.90;;;;;;4883751;29;20221;-68
2023/01/15 19:07:40;;;;;;;0.57;0.57;;;5.60;99.90;;;;;;4898801;29;21084;-68
2023/01/15 19:10:08;;;;;;;0.20;0.20;;;5.60;99.90;;;;;;4904329;29;20636;-67
2023/01/15 19:12:35;;;;;;;6.38;0.68;;;5.60;99.90;;;;;;4886799;29;20240;-68
2023/01/15 19:20:32;;;;;;;2.90;0.70;;;5.50;99.90;;;;;;4897549;29;20376;-68
2023/01/15 19:22:59;;;;;;;1.10;1.10;;;5.50;99.90;;;;;;4893097;29;20208;-68
2023/01/15 19:25:28;;;;;;;1.23;1.23;;;5.50;99.90;;;;;;4900408;29;20294;-68
2023/01/15 19:27:56;;;;;;;0.70;0.70;;;5.50;99.90;;;;;;4897935;29;20209;-68
2023/01/15 19:30:23;;;;;;;0.35;0.35;;;5.40;99.90;;;;;;4895652;29;20212;-69